createdAt,value
2017-04-08T00:06:03.517Z,0
2017-04-08T00:16:14.098Z,0
2017-04-08T00:26:24.755Z,0
2017-04-08T00:36:35.463Z,0
2017-04-08T00:46:46.342Z,0
2017-04-08T00:56:56.768Z,0
2017-04-08T01:07:07.444Z,0
2017-04-08T01:17:18.142Z,0
2017-04-08T01:27:28.804Z,0
2017-04-08T01:37:39.500Z,0
2017-04-08T01:47:50.226Z,0
2017-04-08T01:58:00.968Z,0
2017-04-08T02:08:11.733Z,0
2017-04-08T02:18:22.483Z,0
2017-04-08T02:28:33.270Z,0
2017-04-08T02:38:44.094Z,0
2017-04-08T02:48:54.963Z,0
2017-04-08T02:59:05.798Z,0
2017-04-08T03:09:16.634Z,0
2017-04-08T03:19:27.462Z,0
2017-04-08T03:29:38.326Z,0
2017-04-08T03:39:49.192Z,0
2017-04-08T03:50:00.061Z,0
2017-04-08T04:00:10.962Z,0
2017-04-08T04:10:21.792Z,0
2017-04-08T04:20:32.662Z,0
2017-04-08T04:30:43.588Z,0
2017-04-08T04:40:54.505Z,0
2017-04-08T04:51:05.448Z,5
2017-04-08T05:01:16.397Z,15
2017-04-08T05:11:27.410Z,25
2017-04-08T05:21:38.362Z,45
2017-04-08T05:31:49.298Z,50
2017-04-08T05:42:00.198Z,70
2017-04-08T05:52:11.015Z,100
2017-04-08T06:02:21.817Z,135
2017-04-08T06:12:32.625Z,160
2017-04-08T06:22:43.355Z,190
2017-04-08T06:32:54.064Z,210
2017-04-08T06:43:04.659Z,245
2017-04-08T06:53:15.180Z,295
2017-04-08T07:03:25.649Z,325
2017-04-08T07:13:36.007Z,365
2017-04-08T07:23:46.259Z,440
2017-04-08T07:33:56.406Z,510
2017-04-08T07:44:06.512Z,535
2017-04-08T07:54:16.538Z,565
2017-04-08T08:04:26.515Z,680
2017-04-08T08:14:36.379Z,785
2017-04-08T08:24:46.068Z,815
2017-04-08T08:34:55.733Z,845
2017-04-08T08:45:05.308Z,790
2017-04-08T08:55:14.825Z,775
2017-04-08T09:05:24.334Z,755
2017-04-08T09:15:33.789Z,865
2017-04-08T09:25:43.163Z,935
2017-04-08T09:35:52.584Z,925
2017-04-08T09:46:01.933Z,950
2017-04-08T09:56:11.171Z,985
2017-04-08T10:06:20.419Z,905
2017-04-08T10:16:29.654Z,830
2017-04-08T10:26:38.876Z,1055
2017-04-08T10:36:48.059Z,1210
2017-04-08T10:46:57.177Z,1265
2017-04-08T10:57:06.284Z,1405
2017-04-08T11:07:15.191Z,1285
2017-04-08T11:17:24.191Z,835
2017-04-08T11:27:33.237Z,755
2017-04-08T11:37:42.396Z,895
2017-04-08T11:47:51.596Z,1250
2017-04-08T11:58:00.761Z,1620
2017-04-08T12:08:09.844Z,750
2017-04-08T12:18:19.007Z,1015
2017-04-08T12:38:37.078Z,1265
2017-04-08T12:48:45.985Z,1525
2017-04-08T12:58:54.932Z,1460
2017-04-08T13:09:03.938Z,1020
2017-04-08T13:19:13.034Z,1205
2017-04-08T13:29:22.121Z,2470
2017-04-08T13:39:31.032Z,1335
2017-04-08T13:49:40.029Z,1035
2017-04-08T13:59:49.053Z,1065
2017-04-08T14:09:58.156Z,1045
2017-04-08T14:20:07.226Z,1120
2017-04-08T14:30:16.261Z,830
2017-04-08T14:40:25.385Z,870
2017-04-08T14:50:34.474Z,1070
2017-04-08T15:00:43.644Z,785
2017-04-08T15:10:52.843Z,985
2017-04-08T15:21:02.001Z,1000
2017-04-08T15:31:10.962Z,1250
2017-04-08T15:41:19.701Z,1100
2017-04-08T15:51:32.637Z,940
2017-04-08T16:01:37.382Z,625
2017-04-08T16:11:46.686Z,540
2017-04-08T16:21:56.221Z,480
2017-04-08T16:32:05.984Z,430
2017-04-08T16:42:15.474Z,405
2017-04-08T16:52:24.957Z,350
2017-04-08T17:02:34.514Z,300
2017-04-08T17:12:44.250Z,235
2017-04-08T17:22:54.081Z,185
2017-04-08T17:33:04.057Z,145
2017-04-08T17:43:14.136Z,105
2017-04-08T17:53:24.298Z,70
2017-04-08T18:03:34.598Z,45
2017-04-08T18:13:44.974Z,20
2017-04-08T18:23:55.458Z,5
2017-04-08T18:34:06.044Z,0
2017-04-08T18:44:16.682Z,0
2017-04-08T18:54:27.341Z,0
2017-04-08T19:04:37.990Z,0
2017-04-08T19:14:48.739Z,0
2017-04-08T19:24:59.490Z,0
2017-04-08T19:35:10.233Z,0
2017-04-08T19:45:21.028Z,0
2017-04-08T19:55:31.873Z,0
2017-04-08T20:05:42.719Z,0
2017-04-08T20:15:53.681Z,0
2017-04-08T20:26:04.661Z,0
2017-04-08T20:36:15.648Z,0
2017-04-08T20:46:26.677Z,0
2017-04-08T20:56:37.651Z,0
2017-04-08T21:06:48.647Z,0
2017-04-08T21:16:59.626Z,0
2017-04-08T21:27:10.636Z,0
2017-04-08T21:37:21.623Z,0
2017-04-08T21:47:32.732Z,0
2017-04-08T21:57:43.762Z,0
2017-04-08T22:07:54.877Z,0
2017-04-08T22:18:06.004Z,0
2017-04-08T22:28:17.105Z,0
2017-04-08T22:38:28.225Z,0
2017-04-08T22:48:39.404Z,0
2017-04-08T22:58:50.522Z,0
2017-04-08T23:09:01.697Z,0
2017-04-08T23:19:12.802Z,0
2017-04-08T23:29:23.879Z,0
2017-04-08T23:39:35.029Z,0
2017-04-08T23:49:46.210Z,0
2017-04-08T23:59:57.373Z,0
